sensor_id;sensor_type;location;lat;lon;timestamp;pressure;altitude;pressure_sealevel;temperature;humidity
25510;BME280;13413;52.336;21.200;2023-06-19T00:02:39;100430.95;;;17.20;73.68
25510;BME280;13413;52.336;21.200;2023-06-19T00:13:35;100422.56;;;17.20;73.64
25510;BME280;13413;52.336;21.200;2023-06-19T00:16:30;100420.61;;;17.20;73.57
25510;BME280;13413;52.336;21.200;2023-06-19T00:19:23;100424.84;;;17.08;73.71
25510;BME280;13413;52.336;21.200;2023-06-19T00:22:16;100429.45;;;16.94;73.98
25510;BME280;13413;52.336;21.200;2023-06-19T00:25:17;100432.80;;;16.84;73.89
25510;BME280;13413;52.336;21.200;2023-06-19T00:28:11;100437.16;;;16.86;74.11
25510;BME280;13413;52.336;21.200;2023-06-19T00:31:05;100435.85;;;16.92;74.18
25510;BME280;13413;52.336;21.200;2023-06-19T00:33:59;100432.29;;;16.88;74.02
25510;BME280;13413;52.336;21.200;2023-06-19T00:36:54;100435.18;;;16.88;74.04
25510;BME280;13413;52.336;21.200;2023-06-19T00:39:55;100430.02;;;16.86;73.82
25510;BME280;13413;52.336;21.200;2023-06-19T00:42:56;100428.29;;;16.86;74.01
25510;BME280;13413;52.336;21.200;2023-06-19T00:45:49;100429.00;;;16.85;74.16
25510;BME280;13413;52.336;21.200;2023-06-19T00:50:16;100429.68;;;16.74;74.04
25510;BME280;13413;52.336;21.200;2023-06-19T00:53:10;100430.85;;;16.52;74.27
25510;BME280;13413;52.336;21.200;2023-06-19T00:56:08;100428.23;;;16.39;74.73
25510;BME280;13413;52.336;21.200;2023-06-19T00:59:16;100433.38;;;16.37;74.92
25510;BME280;13413;52.336;21.200;2023-06-19T01:02:10;100431.80;;;16.44;74.89
25510;BME280;13413;52.336;21.200;2023-06-19T01:05:12;100430.25;;;16.53;74.79
25510;BME280;13413;52.336;21.200;2023-06-19T01:08:18;100429.90;;;16.58;74.56
25510;BME280;13413;52.336;21.200;2023-06-19T01:11:21;100431.02;;;16.61;74.29
25510;BME280;13413;52.336;21.200;2023-06-19T01:14:21;100429.05;;;16.61;74.23
25510;BME280;13413;52.336;21.200;2023-06-19T01:17:15;100423.89;;;16.59;74.25
25510;BME280;13413;52.336;21.200;2023-06-19T01:20:16;100427.13;;;16.46;74.13
25510;BME280;13413;52.336;21.200;2023-06-19T01:23:17;100431.07;;;16.40;74.42
25510;BME280;13413;52.336;21.200;2023-06-19T01:26:12;100434.00;;;16.47;74.54
25510;BME280;13413;52.336;21.200;2023-06-19T01:29:04;100428.50;;;16.55;74.32
25510;BME280;13413;52.336;21.200;2023-06-19T01:32:04;100425.99;;;16.56;74.13
25510;BME280;13413;52.336;21.200;2023-06-19T01:35:02;100428.65;;;16.48;74.13
25510;BME280;13413;52.336;21.200;2023-06-19T01:37:59;100427.02;;;16.31;74.30
25510;BME280;13413;52.336;21.200;2023-06-19T01:40:56;100434.48;;;16.08;74.52
25510;BME280;13413;52.336;21.200;2023-06-19T01:43:52;100432.17;;;15.99;74.91
25510;BME280;13413;52.336;21.200;2023-06-19T01:46:48;100434.63;;;16.03;75.12
25510;BME280;13413;52.336;21.200;2023-06-19T01:49:49;100433.02;;;16.08;75.09
25510;BME280;13413;52.336;21.200;2023-06-19T01:52:50;100432.38;;;16.15;74.95
25510;BME280;13413;52.336;21.200;2023-06-19T02:03:45;100437.00;;;16.27;74.40
25510;BME280;13413;52.336;21.200;2023-06-19T02:06:39;100433.45;;;16.28;74.38
25510;BME280;13413;52.336;21.200;2023-06-19T02:10:10;100432.84;;;16.29;74.31
25510;BME280;13413;52.336;21.200;2023-06-19T02:13:02;100431.62;;;16.22;74.31
25510;BME280;13413;52.336;21.200;2023-06-19T02:15:54;100436.21;;;16.19;74.33
25510;BME280;13413;52.336;21.200;2023-06-19T02:18:54;100435.88;;;16.16;74.35
25510;BME280;13413;52.336;21.200;2023-06-19T02:21:47;100439.58;;;16.16;74.48
25510;BME280;13413;52.336;21.200;2023-06-19T02:24:46;100442.06;;;16.14;74.59
25510;BME280;13413;52.336;21.200;2023-06-19T02:27:46;100440.83;;;16.14;74.64
25510;BME280;13413;52.336;21.200;2023-06-19T02:30:39;100442.09;;;16.13;74.58
25510;BME280;13413;52.336;21.200;2023-06-19T02:33:38;100438.89;;;16.13;74.53
25510;BME280;13413;52.336;21.200;2023-06-19T02:36:30;100439.09;;;16.16;74.48
25510;BME280;13413;52.336;21.200;2023-06-19T02:39:30;100442.92;;;16.17;74.53
25510;BME280;13413;52.336;21.200;2023-06-19T02:42:23;100443.20;;;16.15;74.52
25510;BME280;13413;52.336;21.200;2023-06-19T02:45:23;100441.55;;;16.16;74.55
25510;BME280;13413;52.336;21.200;2023-06-19T02:48:16;100442.50;;;16.17;74.40
25510;BME280;13413;52.336;21.200;2023-06-19T02:51:09;100448.16;;;16.10;74.29
25510;BME280;13413;52.336;21.200;2023-06-19T02:54:08;100448.88;;;16.05;74.40
25510;BME280;13413;52.336;21.200;2023-06-19T02:57:02;100450.54;;;15.88;74.42
25510;BME280;13413;52.336;21.200;2023-06-19T03:00:02;100451.63;;;15.73;74.75
25510;BME280;13413;52.336;21.200;2023-06-19T03:02:55;100455.54;;;15.67;75.04
25510;BME280;13413;52.336;21.200;2023-06-19T03:05:48;100458.41;;;15.66;75.06
25510;BME280;13413;52.336;21.200;2023-06-19T03:08:48;100455.82;;;15.68;75.13
25510;BME280;13413;52.336;21.200;2023-06-19T03:11:41;100458.52;;;15.74;75.08
25510;BME280;13413;52.336;21.200;2023-06-19T03:14:34;100461.67;;;15.70;74.95
25510;BME280;13413;52.336;21.200;2023-06-19T03:17:34;100461.33;;;15.67;75.14
25510;BME280;13413;52.336;21.200;2023-06-19T03:20:27;100457.14;;;15.76;75.07
25510;BME280;13413;52.336;21.200;2023-06-19T03:25:10;100457.33;;;15.91;75.04
25510;BME280;13413;52.336;21.200;2023-06-19T03:28:03;100463.73;;;15.95;75.03
25510;BME280;13413;52.336;21.200;2023-06-19T03:30:55;100463.84;;;15.87;74.98
25510;BME280;13413;52.336;21.200;2023-06-19T03:33:56;100458.25;;;15.70;75.19
25510;BME280;13413;52.336;21.200;2023-06-19T03:36:48;100465.17;;;15.61;75.47
25510;BME280;13413;52.336;21.200;2023-06-19T03:39:47;100460.56;;;15.56;75.72
25510;BME280;13413;52.336;21.200;2023-06-19T03:42:46;100461.65;;;15.50;75.99
25510;BME280;13413;52.336;21.200;2023-06-19T03:45:38;100457.30;;;15.52;76.15
25510;BME280;13413;52.336;21.200;2023-06-19T03:48:37;100457.05;;;15.58;76.37
25510;BME280;13413;52.336;21.200;2023-06-19T03:51:32;100455.95;;;15.63;76.52
25510;BME280;13413;52.336;21.200;2023-06-19T03:54:24;100454.95;;;15.69;76.56
25510;BME280;13413;52.336;21.200;2023-06-19T03:57:23;100450.42;;;15.87;76.70
25510;BME280;13413;52.336;21.200;2023-06-19T04:00:23;100446.75;;;15.93;76.69
25510;BME280;13413;52.336;21.200;2023-06-19T04:03:22;100446.98;;;15.96;76.92
25510;BME280;13413;52.336;21.200;2023-06-19T04:06:15;100446.40;;;16.06;77.05
25510;BME280;13413;52.336;21.200;2023-06-19T04:09:15;100442.86;;;16.20;76.98
25510;BME280;13413;52.336;21.200;2023-06-19T04:12:09;100439.40;;;16.37;76.88
25510;BME280;13413;52.336;21.200;2023-06-19T04:15:10;100440.20;;;16.47;77.46
25510;BME280;13413;52.336;21.200;2023-06-19T04:18:03;100444.42;;;16.50;77.62
25510;BME280;13413;52.336;21.200;2023-06-19T04:20:55;100453.05;;;16.56;77.99
25510;BME280;13413;52.336;21.200;2023-06-19T04:23:55;100454.93;;;16.67;77.80
25510;BME280;13413;52.336;21.200;2023-06-19T04:26:47;100456.88;;;16.76;77.79
25510;BME280;13413;52.336;21.200;2023-06-19T04:29:46;100459.11;;;16.88;77.73
25510;BME280;13413;52.336;21.200;2023-06-19T04:32:45;100458.20;;;16.99;77.80
25510;BME280;13413;52.336;21.200;2023-06-19T04:35:38;100457.82;;;17.14;77.85
25510;BME280;13413;52.336;21.200;2023-06-19T04:40:19;100459.70;;;17.24;77.23
25510;BME280;13413;52.336;21.200;2023-06-19T04:43:11;100458.55;;;17.28;77.33
25510;BME280;13413;52.336;21.200;2023-06-19T04:46:03;100453.28;;;17.39;77.65
25510;BME280;13413;52.336;21.200;2023-06-19T04:49:02;100454.58;;;17.48;77.62
25510;BME280;13413;52.336;21.200;2023-06-19T04:51:55;100453.77;;;17.51;77.65
25510;BME280;13413;52.336;21.200;2023-06-19T04:54:55;100453.42;;;17.62;77.73
25510;BME280;13413;52.336;21.200;2023-06-19T04:57:50;100454.84;;;17.71;77.85
25510;BME280;13413;52.336;21.200;2023-06-19T05:00:41;100458.86;;;17.82;78.06
25510;BME280;13413;52.336;21.200;2023-06-19T05:08:40;100458.83;;;18.05;77.67
25510;BME280;13413;52.336;21.200;2023-06-19T05:11:33;100458.86;;;18.09;77.50
25510;BME280;13413;52.336;21.200;2023-06-19T05:14:33;100457.95;;;18.17;77.67
25510;BME280;13413;52.336;21.200;2023-06-19T05:17:26;100462.35;;;18.23;77.73
25510;BME280;13413;52.336;21.200;2023-06-19T05:20:26;100457.95;;;18.33;77.76
25510;BME280;13413;52.336;21.200;2023-06-19T05:23:25;100459.93;;;18.40;77.70
25510;BME280;13413;52.336;21.200;2023-06-19T05:26:25;100459.36;;;18.47;77.42
25510;BME280;13413;52.336;21.200;2023-06-19T05:29:25;100461.99;;;18.54;77.59
25510;BME280;13413;52.336;21.200;2023-06-19T05:32:18;100469.84;;;18.65;77.41
25510;BME280;13413;52.336;21.200;2023-06-19T05:35:19;100465.73;;;18.76;77.43
25510;BME280;13413;52.336;21.200;2023-06-19T05:38:18;100472.29;;;18.87;77.26
25510;BME280;13413;52.336;21.200;2023-06-19T05:41:13;100472.91;;;18.98;77.58
25510;BME280;13413;52.336;21.200;2023-06-19T05:44:13;100475.85;;;19.14;77.42
25510;BME280;13413;52.336;21.200;2023-06-19T05:47:06;100484.54;;;19.26;76.92
25510;BME280;13413;52.336;21.200;2023-06-19T05:50:16;100485.79;;;19.39;76.66
25510;BME280;13413;52.336;21.200;2023-06-19T05:53:10;100489.75;;;19.48;76.52
25510;BME280;13413;52.336;21.200;2023-06-19T05:56:05;100488.05;;;19.53;76.35
25510;BME280;13413;52.336;21.200;2023-06-19T05:59:05;100494.59;;;19.64;76.46
25510;BME280;13413;52.336;21.200;2023-06-19T06:01:59;100493.52;;;19.79;76.35
25510;BME280;13413;52.336;21.200;2023-06-19T06:07:54;100496.02;;;20.13;76.36
25510;BME280;13413;52.336;21.200;2023-06-19T06:10:49;100502.85;;;20.26;75.70
25510;BME280;13413;52.336;21.200;2023-06-19T06:13:43;100507.36;;;20.29;75.15
25510;BME280;13413;52.336;21.200;2023-06-19T06:16:37;100513.43;;;20.33;75.12
25510;BME280;13413;52.336;21.200;2023-06-19T06:19:39;100515.57;;;20.39;74.95
25510;BME280;13413;52.336;21.200;2023-06-19T06:22:40;100522.10;;;20.43;74.23
25510;BME280;13413;52.336;21.200;2023-06-19T06:33:35;100537.09;;;20.48;73.52
25510;BME280;13413;52.336;21.200;2023-06-19T06:36:29;100538.96;;;20.59;74.08
25510;BME280;13413;52.336;21.200;2023-06-19T06:39:30;100544.48;;;20.77;73.83
25510;BME280;13413;52.336;21.200;2023-06-19T06:42:24;100545.23;;;20.88;73.03
25510;BME280;13413;52.336;21.200;2023-06-19T06:45:25;100545.70;;;21.00;73.47
25510;BME280;13413;52.336;21.200;2023-06-19T06:53:14;100548.55;;;21.43;72.64
25510;BME280;13413;52.336;21.200;2023-06-19T06:56:06;100547.65;;;21.48;71.52
25510;BME280;13413;52.336;21.200;2023-06-19T06:59:00;100545.00;;;21.43;70.50
25510;BME280;13413;52.336;21.200;2023-06-19T07:04:19;100543.27;;;21.51;70.78
25510;BME280;13413;52.336;21.200;2023-06-19T07:07:29;100541.69;;;21.62;70.30
25510;BME280;13413;52.336;21.200;2023-06-19T07:10:26;100544.05;;;21.67;69.13
25510;BME280;13413;52.336;21.200;2023-06-19T07:13:19;100543.96;;;21.71;68.69
25510;BME280;13413;52.336;21.200;2023-06-19T07:16:11;100536.42;;;21.73;68.59
25510;BME280;13413;52.336;21.200;2023-06-19T07:24:06;100536.67;;;21.97;67.04
25510;BME280;13413;52.336;21.200;2023-06-19T07:27:01;100541.15;;;22.05;67.14
25510;BME280;13413;52.336;21.200;2023-06-19T07:30:02;100538.81;;;22.15;66.42
25510;BME280;13413;52.336;21.200;2023-06-19T07:33:03;100535.46;;;22.19;66.44
25510;BME280;13413;52.336;21.200;2023-06-19T07:35:57;100532.02;;;22.23;66.53
25510;BME280;13413;52.336;21.200;2023-06-19T07:38:51;100532.81;;;22.34;66.45
25510;BME280;13413;52.336;21.200;2023-06-19T07:41:52;100532.16;;;22.44;66.14
25510;BME280;13413;52.336;21.200;2023-06-19T07:49:16;100529.49;;;22.66;65.72
25510;BME280;13413;52.336;21.200;2023-06-19T07:52:09;100528.71;;;22.74;64.94
25510;BME280;13413;52.336;21.200;2023-06-19T07:55:09;100532.67;;;22.72;64.35
25510;BME280;13413;52.336;21.200;2023-06-19T07:58:09;100535.46;;;22.64;64.43
25510;BME280;13413;52.336;21.200;2023-06-19T08:01:02;100535.69;;;22.60;64.45
25510;BME280;13413;52.336;21.200;2023-06-19T08:04:02;100532.70;;;22.77;65.02
25510;BME280;13413;52.336;21.200;2023-06-19T08:06:55;100529.41;;;22.91;63.69
25510;BME280;13413;52.336;21.200;2023-06-19T08:09:54;100535.48;;;22.97;62.90
25510;BME280;13413;52.336;21.200;2023-06-19T08:12:47;100534.10;;;23.08;62.01
25510;BME280;13413;52.336;21.200;2023-06-19T08:15:40;100538.21;;;23.22;62.06
25510;BME280;13413;52.336;21.200;2023-06-19T08:18:33;100541.27;;;23.44;62.14
25510;BME280;13413;52.336;21.200;2023-06-19T08:21:25;100543.75;;;23.57;59.74
25510;BME280;13413;52.336;21.200;2023-06-19T08:24:27;100548.96;;;23.58;59.38
25510;BME280;13413;52.336;21.200;2023-06-19T08:27:19;100546.95;;;23.64;59.95
25510;BME280;13413;52.336;21.200;2023-06-19T08:30:12;100545.48;;;23.77;59.82
25510;BME280;13413;52.336;21.200;2023-06-19T08:33:13;100543.70;;;23.82;58.51
25510;BME280;13413;52.336;21.200;2023-06-19T08:36:06;100539.45;;;23.87;58.57
25510;BME280;13413;52.336;21.200;2023-06-19T08:44:25;100538.52;;;24.41;57.84
25510;BME280;13413;52.336;21.200;2023-06-19T08:47:19;100536.36;;;24.49;57.08
25510;BME280;13413;52.336;21.200;2023-06-19T08:50:21;100537.48;;;24.56;55.70
25510;BME280;13413;52.336;21.200;2023-06-19T08:53:14;100541.16;;;24.56;55.86
25510;BME280;13413;52.336;21.200;2023-06-19T08:56:09;100537.05;;;24.66;56.16
25510;BME280;13413;52.336;21.200;2023-06-19T08:59:13;100539.02;;;24.81;56.08
25510;BME280;13413;52.336;21.200;2023-06-19T09:02:08;100537.77;;;25.04;55.53
25510;BME280;13413;52.336;21.200;2023-06-19T09:09:15;100539.18;;;25.18;54.82
25510;BME280;13413;52.336;21.200;2023-06-19T09:12:11;100541.34;;;25.32;54.40
25510;BME280;13413;52.336;21.200;2023-06-19T09:15:15;100541.21;;;25.50;53.39
25510;BME280;13413;52.336;21.200;2023-06-19T09:18:16;100539.66;;;25.53;51.85
25510;BME280;13413;52.336;21.200;2023-06-19T09:21:16;100539.19;;;25.68;52.89
25510;BME280;13413;52.336;21.200;2023-06-19T09:24:17;100537.79;;;25.83;50.37
25510;BME280;13413;52.336;21.200;2023-06-19T09:27:12;100540.78;;;25.89;51.75
25510;BME280;13413;52.336;21.200;2023-06-19T09:30:16;100536.42;;;26.20;51.80
25510;BME280;13413;52.336;21.200;2023-06-19T09:33:10;100539.84;;;26.37;50.22
25510;BME280;13413;52.336;21.200;2023-06-19T09:36:05;100540.11;;;26.41;50.25
25510;BME280;13413;52.336;21.200;2023-06-19T09:44:24;100537.26;;;26.26;49.51
25510;BME280;13413;52.336;21.200;2023-06-19T09:47:22;100540.98;;;26.15;49.24
25510;BME280;13413;52.336;21.200;2023-06-19T09:50:24;100543.82;;;26.07;48.11
25510;BME280;13413;52.336;21.200;2023-06-19T09:53:27;100543.66;;;26.21;48.48
25510;BME280;13413;52.336;21.200;2023-06-19T09:56:21;100537.30;;;26.53;48.51
25510;BME280;13413;52.336;21.200;2023-06-19T09:59:15;100534.40;;;26.94;48.54
25510;BME280;13413;52.336;21.200;2023-06-19T10:02:09;100530.73;;;27.10;45.66
25510;BME280;13413;52.336;21.200;2023-06-19T10:09:16;100531.45;;;27.37;44.99
25510;BME280;13413;52.336;21.200;2023-06-19T10:12:14;100529.20;;;27.38;45.93
25510;BME280;13413;52.336;21.200;2023-06-19T10:15:20;100529.71;;;27.78;45.88
25510;BME280;13413;52.336;21.200;2023-06-19T10:18:21;100527.63;;;27.98;44.26
25510;BME280;13413;52.336;21.200;2023-06-19T10:21:19;100527.46;;;27.87;43.94
25510;BME280;13413;52.336;21.200;2023-06-19T10:24:15;100529.02;;;27.76;43.84
25510;BME280;13413;52.336;21.200;2023-06-19T10:27:10;100522.25;;;27.77;43.41
25510;BME280;13413;52.336;21.200;2023-06-19T10:30:21;100524.40;;;27.94;44.14
25510;BME280;13413;52.336;21.200;2023-06-19T10:33:21;100522.45;;;28.29;44.74
25510;BME280;13413;52.336;21.200;2023-06-19T10:36:17;100520.69;;;28.71;44.24
25510;BME280;13413;52.336;21.200;2023-06-19T10:39:12;100523.56;;;29.04;43.81
25510;BME280;13413;52.336;21.200;2023-06-19T10:42:13;100520.36;;;29.35;43.54
25510;BME280;13413;52.336;21.200;2023-06-19T10:45:15;100514.59;;;29.55;42.78
25510;BME280;13413;52.336;21.200;2023-06-19T10:48:08;100513.23;;;29.43;42.65
25510;BME280;13413;52.336;21.200;2023-06-19T10:51:03;100509.63;;;29.33;42.59
25510;BME280;13413;52.336;21.200;2023-06-19T10:54:05;100505.96;;;29.40;42.58
25510;BME280;13413;52.336;21.200;2023-06-19T10:57:03;100509.88;;;29.52;42.11
25510;BME280;13413;52.336;21.200;2023-06-19T11:04:16;100513.41;;;29.80;41.45
25510;BME280;13413;52.336;21.200;2023-06-19T11:07:09;100511.77;;;30.01;40.96
25510;BME280;13413;52.336;21.200;2023-06-19T11:10:20;100514.45;;;30.17;40.52
25510;BME280;13413;52.336;21.200;2023-06-19T11:13:22;100511.09;;;30.29;40.46
25510;BME280;13413;52.336;21.200;2023-06-19T11:16:17;100507.91;;;30.35;39.95
25510;BME280;13413;52.336;21.200;2023-06-19T11:19:13;100506.36;;;30.33;40.07
25510;BME280;13413;52.336;21.200;2023-06-19T11:22:07;100505.39;;;30.48;40.05
25510;BME280;13413;52.336;21.200;2023-06-19T11:29:17;100503.19;;;30.03;38.60
25510;BME280;13413;52.336;21.200;2023-06-19T11:32:14;100496.67;;;29.80;38.14
25510;BME280;13413;52.336;21.200;2023-06-19T11:35:17;100490.77;;;29.63;37.77
25510;BME280;13413;52.336;21.200;2023-06-19T11:38:20;100489.55;;;29.58;38.46
25510;BME280;13413;52.336;21.200;2023-06-19T11:41:14;100489.58;;;29.87;38.33
25510;BME280;13413;52.336;21.200;2023-06-19T11:44:18;100489.77;;;29.88;37.52
25510;BME280;13413;52.336;21.200;2023-06-19T11:47:13;100484.77;;;29.53;37.41
25510;BME280;13413;52.336;21.200;2023-06-19T11:50:14;100483.83;;;29.48;38.34
25510;BME280;13413;52.336;21.200;2023-06-19T11:53:15;100485.21;;;29.83;38.41
25510;BME280;13413;52.336;21.200;2023-06-19T11:56:09;100486.48;;;30.14;37.65
25510;BME280;13413;52.336;21.200;2023-06-19T12:04:29;100471.79;;;29.77;36.73
25510;BME280;13413;52.336;21.200;2023-06-19T12:07:23;100468.59;;;29.42;36.97
25510;BME280;13413;52.336;21.200;2023-06-19T12:10:24;100465.64;;;29.24;37.18
25510;BME280;13413;52.336;21.200;2023-06-19T12:13:25;100467.16;;;29.25;37.57
25510;BME280;13413;52.336;21.200;2023-06-19T12:16:19;100465.05;;;29.26;36.89
25510;BME280;13413;52.336;21.200;2023-06-19T12:19:13;100464.59;;;29.28;36.98
25510;BME280;13413;52.336;21.200;2023-06-19T12:22:09;100460.27;;;29.36;36.84
25510;BME280;13413;52.336;21.200;2023-06-19T12:29:16;100456.57;;;29.31;36.03
25510;BME280;13413;52.336;21.200;2023-06-19T12:32:13;100460.12;;;29.20;36.26
25510;BME280;13413;52.336;21.200;2023-06-19T12:35:14;100458.31;;;29.42;37.05
25510;BME280;13413;52.336;21.200;2023-06-19T12:38:15;100462.47;;;29.75;37.40
25510;BME280;13413;52.336;21.200;2023-06-19T12:41:16;100463.02;;;29.71;37.42
25510;BME280;13413;52.336;21.200;2023-06-19T12:44:17;100462.48;;;29.67;37.89
25510;BME280;13413;52.336;21.200;2023-06-19T12:47:12;100459.20;;;29.62;37.55
25510;BME280;13413;52.336;21.200;2023-06-19T12:50:12;100456.81;;;29.48;37.52
25510;BME280;13413;52.336;21.200;2023-06-19T12:53:13;100455.98;;;29.26;37.52
25510;BME280;13413;52.336;21.200;2023-06-19T12:56:07;100452.70;;;29.11;38.25
25510;BME280;13413;52.336;21.200;2023-06-19T13:04:25;100440.02;;;28.97;38.21
25510;BME280;13413;52.336;21.200;2023-06-19T13:07:19;100440.43;;;28.91;37.95
25510;BME280;13413;52.336;21.200;2023-06-19T13:10:20;100438.83;;;28.76;38.34
25510;BME280;13413;52.336;21.200;2023-06-19T13:13:14;100437.40;;;28.74;38.76
25510;BME280;13413;52.336;21.200;2023-06-19T13:16:08;100437.13;;;28.67;38.60
25510;BME280;13413;52.336;21.200;2023-06-19T13:19:02;100433.96;;;28.62;38.73
25510;BME280;13413;52.336;21.200;2023-06-19T13:22:04;100427.67;;;28.64;38.54
25510;BME280;13413;52.336;21.200;2023-06-19T13:29:10;100425.77;;;28.80;38.53
25510;BME280;13413;52.336;21.200;2023-06-19T13:32:05;100421.70;;;28.87;38.23
25510;BME280;13413;52.336;21.200;2023-06-19T13:34:59;100421.45;;;28.78;37.13
25510;BME280;13413;52.336;21.200;2023-06-19T13:44:00;100413.27;;;28.71;37.64
25510;BME280;13413;52.336;21.200;2023-06-19T13:46:53;100411.73;;;28.73;38.16
25510;BME280;13413;52.336;21.200;2023-06-19T13:49:46;100413.08;;;28.86;37.97
25510;BME280;13413;52.336;21.200;2023-06-19T13:52:46;100413.23;;;28.98;38.09
25510;BME280;13413;52.336;21.200;2023-06-19T13:55:38;100414.42;;;28.99;38.01
25510;BME280;13413;52.336;21.200;2023-06-19T13:58:39;100410.83;;;28.91;38.20
25510;BME280;13413;52.336;21.200;2023-06-19T14:01:32;100410.75;;;28.85;38.40
25510;BME280;13413;52.336;21.200;2023-06-19T14:04:31;100403.52;;;28.87;38.50
25510;BME280;13413;52.336;21.200;2023-06-19T14:07:23;100400.61;;;28.86;38.58
25510;BME280;13413;52.336;21.200;2023-06-19T14:10:22;100399.60;;;28.85;38.55
25510;BME280;13413;52.336;21.200;2023-06-19T14:13:21;100399.59;;;28.81;38.42
25510;BME280;13413;52.336;21.200;2023-06-19T14:16:13;100398.29;;;28.82;38.52
25510;BME280;13413;52.336;21.200;2023-06-19T14:19:13;100394.23;;;28.80;38.61
25510;BME280;13413;52.336;21.200;2023-06-19T14:22:06;100392.29;;;28.77;38.60
25510;BME280;13413;52.336;21.200;2023-06-19T14:25:07;100390.91;;;28.78;38.69
25510;BME280;13413;52.336;21.200;2023-06-19T14:27:59;100390.39;;;28.80;38.49
25510;BME280;13413;52.336;21.200;2023-06-19T14:30:52;100390.98;;;28.84;38.17
25510;BME280;13413;52.336;21.200;2023-06-19T14:33:45;100391.39;;;28.79;37.78
25510;BME280;13413;52.336;21.200;2023-06-19T14:36:38;100389.02;;;28.69;37.97
25510;BME280;13413;52.336;21.200;2023-06-19T14:39:38;100383.90;;;28.58;38.41
25510;BME280;13413;52.336;21.200;2023-06-19T14:45:24;100375.35;;;28.52;37.95
25510;BME280;13413;52.336;21.200;2023-06-19T14:48:16;100377.35;;;28.49;38.20
25510;BME280;13413;52.336;21.200;2023-06-19T14:51:08;100381.18;;;28.53;38.34
25510;BME280;13413;52.336;21.200;2023-06-19T14:54:02;100380.66;;;28.59;38.48
25510;BME280;13413;52.336;21.200;2023-06-19T14:56:54;100381.33;;;28.59;38.05
25510;BME280;13413;52.336;21.200;2023-06-19T14:59:47;100378.73;;;28.52;38.12
25510;BME280;13413;52.336;21.200;2023-06-19T15:09:06;100378.84;;;28.04;38.40
25510;BME280;13413;52.336;21.200;2023-06-19T15:11:59;100375.71;;;27.95;38.66
25510;BME280;13413;52.336;21.200;2023-06-19T15:15:00;100375.39;;;27.89;38.88
25510;BME280;13413;52.336;21.200;2023-06-19T15:18:01;100377.20;;;27.84;39.12
25510;BME280;13413;52.336;21.200;2023-06-19T15:20:55;100374.16;;;27.77;38.83
25510;BME280;13413;52.336;21.200;2023-06-19T15:23:56;100374.61;;;27.81;38.93
25510;BME280;13413;52.336;21.200;2023-06-19T15:26:50;100371.45;;;27.96;39.25
25510;BME280;13413;52.336;21.200;2023-06-19T15:29:51;100370.45;;;28.13;39.06
25510;BME280;13413;52.336;21.200;2023-06-19T15:32:52;100367.61;;;28.19;38.22
25510;BME280;13413;52.336;21.200;2023-06-19T15:35:46;100366.59;;;28.12;38.01
25510;BME280;13413;52.336;21.200;2023-06-19T15:44:05;100362.37;;;28.13;38.19
25510;BME280;13413;52.336;21.200;2023-06-19T15:46:58;100367.27;;;28.20;37.54
25510;BME280;13413;52.336;21.200;2023-06-19T15:49:59;100368.25;;;28.24;37.61
25510;BME280;13413;52.336;21.200;2023-06-19T15:53:00;100369.64;;;28.30;37.85
25510;BME280;13413;52.336;21.200;2023-06-19T15:55:55;100371.06;;;28.34;37.91
25510;BME280;13413;52.336;21.200;2023-06-19T15:58:49;100371.26;;;28.37;37.85
25510;BME280;13413;52.336;21.200;2023-06-19T16:01:50;100373.05;;;28.42;37.70
25510;BME280;13413;52.336;21.200;2023-06-19T16:09:15;100368.46;;;28.45;37.37
25510;BME280;13413;52.336;21.200;2023-06-19T16:12:09;100369.96;;;28.47;37.46
25510;BME280;13413;52.336;21.200;2023-06-19T16:15:10;100374.37;;;28.49;37.28
25510;BME280;13413;52.336;21.200;2023-06-19T16:18:09;100371.77;;;28.47;37.67
25510;BME280;13413;52.336;21.200;2023-06-19T16:21:03;100371.65;;;28.47;37.66
25510;BME280;13413;52.336;21.200;2023-06-19T16:24:03;100369.88;;;28.50;37.85
25510;BME280;13413;52.336;21.200;2023-06-19T16:26:56;100369.96;;;28.47;37.87
25510;BME280;13413;52.336;21.200;2023-06-19T16:29:56;100373.37;;;28.42;37.86
25510;BME280;13413;52.336;21.200;2023-06-19T16:32:56;100374.84;;;28.37;38.04
25510;BME280;13413;52.336;21.200;2023-06-19T16:35:48;100373.99;;;28.35;38.18
25510;BME280;13413;52.336;21.200;2023-06-19T16:40:13;100374.95;;;28.38;38.10
25510;BME280;13413;52.336;21.200;2023-06-19T16:43:08;100378.38;;;28.34;37.85
25510;BME280;13413;52.336;21.200;2023-06-19T16:46:02;100383.33;;;28.31;37.94
25510;BME280;13413;52.336;21.200;2023-06-19T16:49:04;100383.14;;;28.29;38.00
25510;BME280;13413;52.336;21.200;2023-06-19T16:51:58;100381.34;;;28.25;37.79
25510;BME280;13413;52.336;21.200;2023-06-19T16:54:59;100379.20;;;28.21;37.85
25510;BME280;13413;52.336;21.200;2023-06-19T16:57:52;100381.73;;;28.20;37.90
25510;BME280;13413;52.336;21.200;2023-06-19T17:00:47;100380.92;;;28.18;37.93
25510;BME280;13413;52.336;21.200;2023-06-19T17:03:47;100380.26;;;28.15;37.85
25510;BME280;13413;52.336;21.200;2023-06-19T17:06:41;100380.40;;;28.10;38.09
25510;BME280;13413;52.336;21.200;2023-06-19T17:09:43;100376.63;;;28.05;38.25
25510;BME280;13413;52.336;21.200;2023-06-19T17:12:37;100379.48;;;28.00;38.23
25510;BME280;13413;52.336;21.200;2023-06-19T17:15:31;100382.89;;;27.96;38.34
25510;BME280;13413;52.336;21.200;2023-06-19T17:18:25;100382.66;;;27.93;38.40
25510;BME280;13413;52.336;21.200;2023-06-19T17:21:19;100381.64;;;27.92;38.49